createdAt,value
2018-12-29T00:00:57.629Z,20.23
2018-12-29T00:02:14.045Z,20.75
2018-12-29T00:03:30.332Z,20.15
2018-12-29T00:04:46.339Z,19.17
2018-12-29T00:06:02.524Z,20.95
2018-12-29T00:07:18.430Z,20.27
2018-12-29T00:08:34.303Z,19.87
2018-12-29T00:09:50.171Z,19.52
2018-12-29T00:11:06.013Z,21.87
2018-12-29T00:12:21.768Z,19.73
2018-12-29T00:13:37.601Z,19.65
2018-12-29T00:14:55.132Z,18.90
2018-12-29T00:16:11.681Z,19.60
2018-12-29T00:17:27.618Z,20.45
2018-12-29T00:18:43.846Z,19.82
2018-12-29T00:20:00.221Z,20.55
2018-12-29T00:21:15.912Z,21.02
2018-12-29T00:22:31.880Z,20.85
2018-12-29T00:23:47.778Z,20.70
2018-12-29T00:25:03.716Z,21.02
2018-12-29T00:26:20.064Z,22.02
2018-12-29T00:27:35.847Z,21.82
2018-12-29T00:28:51.886Z,21.40
2018-12-29T00:30:08.262Z,21.07
2018-12-29T00:31:24.529Z,20.60
2018-12-29T00:32:40.304Z,21.23
2018-12-29T00:33:56.144Z,20.57
2018-12-29T00:35:12.459Z,20.60
2018-12-29T00:36:28.352Z,25.75
2018-12-29T00:37:44.205Z,22.93
2018-12-29T00:38:59.970Z,20.40
2018-12-29T00:40:15.814Z,20.35
2018-12-29T00:41:31.952Z,20.32
2018-12-29T00:42:47.840Z,19.30
2018-12-29T00:44:03.728Z,18.87
2018-12-29T00:45:19.987Z,17.92
2018-12-29T00:46:36.071Z,16.80
2018-12-29T00:47:51.912Z,17.32
2018-12-29T00:49:08.454Z,18.32
2018-12-29T00:50:24.132Z,17.55
2018-12-29T00:51:40.011Z,17.52
2018-12-29T00:52:55.916Z,17.23
2018-12-29T00:54:12.480Z,17.62
2018-12-29T00:55:28.467Z,18.20
2018-12-29T00:56:44.664Z,19.65
2018-12-29T00:58:00.732Z,16.85
2018-12-29T00:59:16.632Z,18.77
2018-12-29T01:00:32.900Z,17.52
2018-12-29T01:01:49.035Z,18.30
2018-12-29T01:03:04.858Z,16.95
2018-12-29T01:04:21.104Z,17.40
2018-12-29T01:05:36.948Z,17.40
2018-12-29T01:06:52.703Z,17.55
2018-12-29T01:08:08.976Z,17.07
2018-12-29T01:09:25.348Z,17.17
2018-12-29T01:10:41.148Z,16.75
2018-12-29T01:11:57.444Z,18.15
2018-12-29T01:13:13.379Z,17.32
2018-12-29T01:14:29.416Z,17.00
2018-12-29T01:15:45.757Z,17.55
2018-12-29T01:17:01.967Z,17.17
2018-12-29T01:18:18.143Z,16.85
2018-12-29T01:19:33.840Z,16.82
2018-12-29T01:20:49.780Z,18.02
2018-12-29T01:22:06.045Z,17.98
2018-12-29T01:23:22.191Z,18.12
2018-12-29T01:24:38.248Z,17.48
2018-12-29T01:25:54.032Z,16.90
2018-12-29T01:27:09.948Z,16.82
2018-12-29T01:28:25.768Z,18.12
2018-12-29T01:29:41.571Z,17.95
2018-12-29T01:30:57.586Z,17.10
2018-12-29T01:32:13.467Z,15.90
2018-12-29T01:33:29.623Z,16.37
2018-12-29T01:34:45.720Z,17.30
2018-12-29T01:36:01.610Z,16.90
2018-12-29T01:37:17.794Z,16.82
2018-12-29T01:38:33.611Z,17.25
2018-12-29T01:39:49.435Z,17.12
2018-12-29T01:41:05.560Z,17.62
2018-12-29T01:42:21.600Z,15.95
2018-12-29T01:43:37.694Z,18.45
2018-12-29T01:44:53.783Z,17.87
2018-12-29T01:46:09.892Z,17.73
2018-12-29T01:47:25.789Z,17.55
2018-12-29T01:48:42.014Z,17.15
2018-12-29T01:49:58.204Z,17.25
2018-12-29T01:51:14.256Z,16.17
2018-12-29T01:52:30.256Z,17.05
2018-12-29T01:53:46.235Z,17.35
2018-12-29T01:55:02.162Z,16.65
2018-12-29T01:56:17.963Z,17.20
2018-12-29T01:57:34.007Z,17.77
2018-12-29T01:58:49.992Z,17.65
2018-12-29T02:00:05.786Z,16.57
2018-12-29T02:01:21.664Z,16.90
2018-12-29T02:02:37.714Z,18.37
2018-12-29T02:03:53.653Z,17.30
2018-12-29T02:05:10.859Z,18.40
2018-12-29T02:06:26.567Z,17.20
2018-12-29T02:07:42.675Z,17.80
2018-12-29T02:08:58.616Z,17.07
2018-12-29T02:10:14.646Z,17.05
2018-12-29T02:11:30.508Z,15.83
2018-12-29T02:12:46.722Z,17.60
2018-12-29T02:14:02.535Z,16.77
2018-12-29T02:15:24.636Z,15.93
2018-12-29T02:16:36.616Z,17.00
2018-12-29T02:17:52.784Z,16.60
2018-12-29T02:19:09.047Z,16.45
2018-12-29T02:20:25.000Z,17.25
2018-12-29T02:21:41.315Z,17.05
2018-12-29T02:22:57.730Z,16.30
2018-12-29T02:24:13.500Z,16.85
2018-12-29T02:25:29.440Z,16.40
2018-12-29T02:26:45.361Z,14.78
2018-12-29T02:28:01.662Z,15.65
2018-12-29T02:29:17.993Z,15.68
2018-12-29T02:30:34.060Z,16.32
2018-12-29T02:31:49.920Z,16.07
2018-12-29T02:33:06.145Z,15.15
2018-12-29T02:34:22.320Z,15.18
2018-12-29T02:35:37.980Z,15.05
2018-12-29T02:36:53.570Z,15.08
2018-12-29T02:38:09.627Z,15.35
2018-12-29T02:39:25.418Z,15.05
2018-12-29T02:40:41.652Z,15.08
2018-12-29T02:41:57.752Z,15.10
2018-12-29T02:43:13.711Z,15.93
2018-12-29T02:44:29.455Z,14.85
2018-12-29T02:45:45.316Z,14.47
2018-12-29T02:47:01.465Z,15.25
2018-12-29T02:48:17.617Z,14.83
2018-12-29T02:49:33.408Z,14.18
2018-12-29T02:50:49.161Z,15.10
2018-12-29T02:52:05.287Z,15.28
2018-12-29T02:53:21.320Z,15.03
2018-12-29T02:54:37.521Z,14.75
2018-12-29T02:55:53.844Z,15.03
2018-12-29T02:57:10.031Z,14.65
2018-12-29T02:58:26.138Z,14.43
2018-12-29T02:59:42.179Z,14.18
2018-12-29T03:00:58.345Z,15.85
2018-12-29T03:02:14.228Z,13.88
2018-12-29T03:03:30.569Z,14.78
2018-12-29T03:04:46.776Z,14.07
2018-12-29T03:06:02.630Z,14.07
2018-12-29T03:07:18.499Z,14.43
2018-12-29T03:08:34.815Z,14.93
2018-12-29T03:09:51.051Z,15.65
2018-12-29T03:11:07.187Z,14.95
2018-12-29T03:12:22.995Z,14.95
2018-12-29T03:13:39.152Z,15.15
2018-12-29T03:14:55.036Z,15.03
2018-12-29T03:16:10.946Z,15.00
2018-12-29T03:17:26.823Z,14.50
2018-12-29T03:18:42.882Z,13.10
2018-12-29T03:19:58.748Z,15.40
2018-12-29T03:21:16.095Z,14.23
2018-12-29T03:22:32.250Z,14.30
2018-12-29T03:23:48.077Z,14.10
2018-12-29T03:25:03.697Z,14.05
2018-12-29T03:26:19.555Z,15.05
2018-12-29T03:27:35.461Z,14.68
2018-12-29T03:28:51.687Z,14.95
2018-12-29T03:30:07.885Z,15.20
2018-12-29T03:31:24.103Z,14.78
2018-12-29T03:32:40.011Z,14.03
2018-12-29T03:33:55.887Z,16.10
2018-12-29T03:35:11.763Z,15.40
2018-12-29T03:36:27.675Z,14.68
2018-12-29T03:37:43.547Z,15.48
2018-12-29T03:38:59.648Z,14.07
2018-12-29T03:40:15.479Z,15.50
2018-12-29T03:41:31.746Z,14.78
2018-12-29T03:42:48.007Z,15.23
2018-12-29T03:44:03.712Z,14.73
2018-12-29T03:45:19.863Z,14.98
2018-12-29T03:46:36.088Z,15.48
2018-12-29T03:47:52.428Z,15.13
2018-12-29T03:49:08.352Z,15.13
2018-12-29T03:50:24.110Z,15.50
2018-12-29T03:51:39.774Z,15.05
2018-12-29T03:52:56.003Z,15.28
2018-12-29T03:54:12.734Z,14.93
2018-12-29T03:55:28.464Z,14.65
2018-12-29T03:56:44.665Z,15.38
2018-12-29T03:58:00.799Z,15.38
2018-12-29T03:59:17.099Z,14.85
2018-12-29T04:00:33.009Z,15.40
2018-12-29T04:01:48.992Z,14.07
2018-12-29T04:03:05.258Z,14.70
2018-12-29T04:04:20.981Z,15.05
2018-12-29T04:05:37.343Z,15.13
2018-12-29T04:06:53.569Z,15.65
2018-12-29T04:08:09.579Z,15.38
2018-12-29T04:09:25.649Z,14.68
2018-12-29T04:10:41.660Z,14.95
2018-12-29T04:11:57.649Z,14.78
2018-12-29T04:13:13.657Z,15.50
2018-12-29T04:14:29.642Z,15.28
2018-12-29T04:15:45.580Z,15.28
2018-12-29T04:17:01.453Z,16.07
2018-12-29T04:18:17.696Z,15.50
2018-12-29T04:19:33.840Z,15.95
2018-12-29T04:20:49.911Z,16.62
2018-12-29T04:22:05.956Z,15.95
2018-12-29T04:23:21.843Z,16.20
2018-12-29T04:24:38.007Z,15.43
2018-12-29T04:25:53.907Z,14.58
2018-12-29T04:27:10.191Z,15.65
2018-12-29T04:28:25.859Z,14.93
2018-12-29T04:29:41.913Z,16.65
2018-12-29T04:30:58.098Z,15.65
2018-12-29T04:32:14.479Z,15.20
2018-12-29T04:33:30.357Z,15.40
2018-12-29T04:34:46.239Z,14.78
2018-12-29T04:36:02.388Z,15.98
2018-12-29T04:37:18.383Z,15.38
2018-12-29T04:38:34.637Z,14.28
2018-12-29T04:39:50.907Z,15.63
2018-12-29T04:41:06.637Z,13.83
2018-12-29T04:42:22.528Z,15.32
2018-12-29T04:43:38.452Z,15.05
2018-12-29T04:44:54.472Z,14.93
2018-12-29T04:46:10.639Z,14.53
2018-12-29T04:47:27.035Z,14.53
2018-12-29T04:48:43.196Z,15.80
2018-12-29T04:49:59.114Z,15.65
2018-12-29T04:51:15.425Z,13.35
2018-12-29T04:52:31.112Z,13.98
2018-12-29T04:53:47.445Z,14.70
2018-12-29T04:55:03.756Z,14.45
2018-12-29T04:56:19.704Z,14.35
2018-12-29T04:57:35.596Z,14.65
2018-12-29T04:58:51.852Z,15.78
2018-12-29T05:00:08.209Z,15.08
2018-12-29T05:01:24.735Z,15.72
2018-12-29T05:02:40.812Z,15.28
2018-12-29T05:03:56.647Z,13.65
2018-12-29T05:05:13.008Z,15.70
2018-12-29T05:06:29.372Z,15.20
2018-12-29T05:07:45.346Z,15.32
2018-12-29T05:09:01.405Z,15.20
2018-12-29T05:10:17.259Z,14.93
2018-12-29T05:11:33.085Z,14.70
2018-12-29T05:12:49.117Z,15.43
2018-12-29T05:14:05.055Z,15.30
2018-12-29T05:15:20.900Z,15.53
2018-12-29T05:16:36.619Z,15.72
2018-12-29T05:17:52.818Z,14.68
2018-12-29T05:19:08.754Z,15.72
2018-12-29T05:20:24.472Z,15.35
2018-12-29T05:21:40.183Z,14.98
2018-12-29T05:22:56.043Z,16.27
2018-12-29T05:24:12.045Z,16.45
2018-12-29T05:25:27.965Z,15.95
2018-12-29T05:26:43.804Z,14.90
2018-12-29T05:27:59.768Z,15.68
2018-12-29T05:29:15.916Z,16.10
2018-12-29T05:30:31.611Z,15.93
2018-12-29T05:31:47.935Z,16.00
2018-12-29T05:33:04.244Z,16.10
2018-12-29T05:34:20.114Z,15.63
2018-12-29T05:35:36.052Z,16.48
2018-12-29T05:36:52.076Z,16.65
2018-12-29T05:38:08.080Z,16.57
2018-12-29T05:39:23.928Z,15.90
2018-12-29T05:40:40.048Z,15.32
2018-12-29T05:41:56.013Z,15.20
2018-12-29T05:43:12.078Z,15.93
2018-12-29T05:44:27.840Z,15.95
2018-12-29T05:45:43.832Z,17.12
2018-12-29T05:46:59.867Z,17.45
2018-12-29T05:48:16.016Z,15.70
2018-12-29T05:49:32.147Z,17.07
2018-12-29T05:50:48.172Z,16.62
2018-12-29T05:52:03.903Z,16.32
2018-12-29T05:53:19.935Z,17.50
2018-12-29T05:54:35.817Z,16.48
2018-12-29T05:55:51.591Z,16.40
2018-12-29T05:57:07.977Z,17.45
2018-12-29T05:58:23.592Z,15.18
2018-12-29T05:59:39.704Z,16.87
2018-12-29T06:00:55.663Z,15.93
2018-12-29T06:02:11.727Z,15.93
2018-12-29T06:03:27.352Z,17.32
2018-12-29T06:04:43.072Z,16.17
2018-12-29T06:05:59.391Z,16.90
2018-12-29T06:07:15.324Z,16.57
2018-12-29T06:08:31.406Z,16.45
2018-12-29T06:09:47.156Z,15.85
2018-12-29T06:11:02.814Z,16.57
2018-12-29T06:12:19.143Z,16.00
2018-12-29T06:13:35.394Z,16.65
2018-12-29T06:14:51.068Z,17.35
2018-12-29T06:16:06.917Z,16.62
2018-12-29T06:17:22.851Z,16.82
2018-12-29T06:18:39.301Z,17.85
2018-12-29T06:19:55.448Z,15.78
2018-12-29T06:21:11.692Z,17.12
2018-12-29T06:22:27.635Z,16.75
2018-12-29T06:23:43.791Z,16.27
2018-12-29T06:24:59.551Z,17.37
2018-12-29T06:26:15.691Z,16.95
2018-12-29T06:27:31.563Z,17.65
2018-12-29T06:28:47.743Z,17.17
2018-12-29T06:30:03.832Z,17.23
2018-12-29T06:31:19.636Z,16.85
2018-12-29T06:32:36.022Z,16.55
2018-12-29T06:33:52.133Z,16.80
2018-12-29T06:35:08.511Z,16.25
2018-12-29T06:36:24.583Z,17.92
2018-12-29T06:37:40.552Z,17.70
2018-12-29T06:38:56.571Z,16.75
2018-12-29T06:40:12.420Z,16.75
2018-12-29T06:41:28.368Z,17.50
2018-12-29T06:42:44.471Z,17.10
2018-12-29T06:44:00.439Z,18.20
2018-12-29T06:45:16.235Z,17.30
2018-12-29T06:46:35.047Z,16.70
2018-12-29T06:47:49.332Z,16.95
2018-12-29T06:49:05.235Z,17.67
2018-12-29T06:50:21.212Z,17.87
2018-12-29T06:51:39.154Z,17.87
2018-12-29T06:52:55.525Z,17.82
2018-12-29T06:54:11.527Z,17.92
2018-12-29T06:55:27.521Z,18.37
2018-12-29T06:56:43.361Z,16.85
2018-12-29T06:57:59.651Z,17.10
2018-12-29T06:59:15.696Z,18.30
2018-12-29T07:00:31.944Z,18.12
2018-12-29T07:01:47.721Z,18.62
2018-12-29T07:03:03.807Z,17.73
2018-12-29T07:04:19.596Z,17.50
2018-12-29T07:05:35.382Z,18.98
2018-12-29T07:06:51.701Z,17.75
2018-12-29T07:08:07.928Z,18.60
2018-12-29T07:09:24.029Z,17.37
2018-12-29T07:10:40.044Z,17.42
2018-12-29T07:11:56.275Z,18.30
2018-12-29T07:13:12.272Z,19.48
2018-12-29T07:14:28.435Z,18.17
2018-12-29T07:15:44.325Z,17.57
2018-12-29T07:17:00.339Z,18.25
2018-12-29T07:18:16.249Z,18.40
2018-12-29T07:19:32.069Z,16.62
2018-12-29T07:20:47.793Z,17.48
2018-12-29T07:22:03.477Z,17.90
2018-12-29T07:23:19.276Z,17.92
2018-12-29T07:24:35.111Z,17.48
2018-12-29T07:25:50.568Z,17.70
2018-12-29T07:27:06.868Z,18.35
2018-12-29T07:28:22.903Z,17.27
2018-12-29T07:29:38.816Z,18.27
2018-12-29T07:30:55.031Z,18.55
2018-12-29T07:32:11.242Z,18.48
2018-12-29T07:33:27.250Z,17.35
2018-12-29T07:34:43.445Z,17.80
2018-12-29T07:35:59.572Z,17.07
2018-12-29T07:37:15.804Z,18.45
2018-12-29T07:38:31.763Z,17.73
2018-12-29T07:39:47.591Z,18.25
2018-12-29T07:41:03.520Z,18.57
2018-12-29T07:42:19.856Z,19.15
2018-12-29T07:43:35.662Z,19.15
2018-12-29T07:44:51.779Z,20.27
2018-12-29T07:46:07.679Z,22.60
2018-12-29T07:47:23.350Z,19.77
2018-12-29T07:48:39.680Z,18.77
2018-12-29T07:49:56.104Z,18.52
2018-12-29T07:51:12.275Z,19.17
2018-12-29T07:52:28.225Z,18.65
2018-12-29T07:53:44.084Z,21.37
2018-12-29T07:54:59.971Z,25.15
2018-12-29T07:56:15.875Z,22.67
2018-12-29T07:57:31.720Z,21.95
2018-12-29T07:58:47.276Z,20.27
2018-12-29T08:00:03.481Z,20.05
2018-12-29T08:01:19.492Z,20.08
2018-12-29T08:02:35.798Z,18.87
2018-12-29T08:03:51.834Z,20.35
2018-12-29T08:05:07.830Z,19.48
2018-12-29T08:06:23.927Z,21.00
2018-12-29T08:07:39.686Z,19.87
2018-12-29T08:08:55.572Z,19.73
2018-12-29T08:10:11.456Z,20.10
2018-12-29T08:11:27.175Z,21.80
2018-12-29T08:12:43.299Z,20.65
2018-12-29T08:13:59.186Z,21.50
2018-12-29T08:15:15.636Z,22.22
2018-12-29T08:16:31.660Z,21.60
2018-12-29T08:17:47.550Z,20.57
2018-12-29T08:19:03.600Z,20.52
2018-12-29T08:20:19.673Z,19.62
2018-12-29T08:21:36.013Z,19.67
2018-12-29T08:22:52.319Z,19.65
2018-12-29T08:24:08.580Z,20.65
2018-12-29T08:25:24.643Z,19.45
2018-12-29T08:26:40.957Z,19.15
2018-12-29T08:27:57.044Z,20.12
2018-12-29T08:29:13.072Z,19.87
2018-12-29T08:30:29.035Z,19.17
2018-12-29T08:31:44.895Z,20.77
2018-12-29T08:33:00.828Z,20.45
2018-12-29T08:34:16.796Z,20.62
2018-12-29T08:35:32.809Z,20.08
2018-12-29T08:36:48.627Z,20.37
2018-12-29T08:38:04.556Z,20.95
2018-12-29T08:39:20.816Z,19.35
2018-12-29T08:40:36.755Z,19.75
2018-12-29T08:41:52.668Z,19.75
2018-12-29T08:43:08.983Z,21.27
2018-12-29T08:44:25.107Z,20.60
2018-12-29T08:45:41.177Z,20.12
2018-12-29T08:47:04.269Z,19.27
2018-12-29T08:48:14.791Z,19.73
2018-12-29T08:49:30.982Z,18.57
2018-12-29T08:50:46.976Z,18.15
2018-12-29T08:52:02.566Z,20.57
2018-12-29T08:53:18.791Z,19.67
2018-12-29T08:54:35.147Z,19.05
2018-12-29T08:55:51.249Z,19.82
2018-12-29T08:57:07.801Z,20.32
2018-12-29T08:58:23.621Z,20.68
2018-12-29T08:59:39.764Z,21.23
2018-12-29T09:00:55.568Z,19.45
2018-12-29T09:02:11.847Z,19.92
2018-12-29T09:03:27.973Z,21.70
2018-12-29T09:04:44.242Z,20.95
2018-12-29T09:06:00.325Z,19.50
2018-12-29T09:07:16.412Z,17.92
2018-12-29T09:08:32.411Z,18.40
2018-12-29T09:09:48.511Z,20.65
2018-12-29T09:11:04.447Z,18.90
2018-12-29T09:12:20.609Z,18.75
2018-12-29T09:13:36.688Z,19.10
2018-12-29T09:14:52.899Z,17.62
2018-12-29T09:16:08.679Z,17.73
2018-12-29T09:17:24.419Z,19.10
2018-12-29T09:18:39.955Z,19.73
2018-12-29T09:19:56.142Z,17.82
2018-12-29T09:21:12.088Z,17.27
2018-12-29T09:22:27.655Z,19.00
2018-12-29T09:23:43.867Z,18.98
2018-12-29T09:25:00.404Z,18.00
2018-12-29T09:26:16.736Z,18.30
2018-12-29T09:27:32.284Z,19.12
2018-12-29T09:28:48.329Z,18.37
2018-12-29T09:30:04.496Z,18.30
2018-12-29T09:31:20.359Z,16.73
2018-12-29T09:32:36.579Z,18.35
2018-12-29T09:33:52.646Z,19.77
2018-12-29T09:35:08.700Z,19.37
2018-12-29T09:36:24.364Z,18.30
2018-12-29T09:37:40.563Z,18.57
2018-12-29T09:38:56.602Z,17.45
2018-12-29T09:40:12.924Z,19.17
2018-12-29T09:41:29.035Z,18.32
2018-12-29T09:42:45.023Z,19.02
2018-12-29T09:44:00.927Z,18.55
2018-12-29T09:45:17.257Z,17.30
2018-12-29T09:46:33.477Z,18.55
2018-12-29T09:47:49.481Z,16.95
2018-12-29T09:49:05.795Z,17.12
2018-12-29T09:50:21.711Z,17.15
2018-12-29T09:51:37.766Z,16.93
2018-12-29T09:52:53.913Z,18.45
2018-12-29T09:54:09.910Z,18.15
2018-12-29T09:55:25.643Z,17.50
2018-12-29T09:56:41.541Z,17.48
2018-12-29T09:57:57.618Z,16.95
2018-12-29T09:59:13.460Z,18.45
2018-12-29T10:00:29.430Z,17.57
2018-12-29T10:01:45.461Z,16.95
2018-12-29T10:03:01.603Z,18.73
2018-12-29T10:04:17.707Z,18.00
2018-12-29T10:05:33.591Z,17.40
2018-12-29T10:06:49.344Z,19.75
2018-12-29T10:08:05.288Z,19.35
2018-12-29T10:09:21.032Z,18.23
2018-12-29T10:10:37.138Z,19.12
2018-12-29T10:11:53.683Z,17.80
2018-12-29T10:13:10.071Z,18.10
2018-12-29T10:14:25.829Z,18.07
2018-12-29T10:15:41.685Z,17.17
2018-12-29T10:16:57.531Z,17.57
2018-12-29T10:18:13.578Z,17.17
2018-12-29T10:19:29.637Z,16.70
2018-12-29T10:20:45.876Z,16.93
2018-12-29T10:22:02.007Z,16.82
2018-12-29T10:23:17.968Z,16.93
2018-12-29T10:24:33.897Z,17.55
2018-12-29T10:25:49.791Z,19.17
2018-12-29T10:27:05.857Z,18.95
2018-12-29T10:28:21.766Z,22.93
2018-12-29T10:29:37.403Z,18.10
2018-12-29T10:30:53.831Z,19.25
2018-12-29T10:32:09.521Z,18.17
2018-12-29T10:33:25.524Z,17.05
2018-12-29T10:34:41.899Z,17.67
2018-12-29T10:35:58.273Z,16.87
2018-12-29T10:37:13.887Z,17.52
2018-12-29T10:38:29.950Z,16.23
2018-12-29T10:39:46.238Z,16.52
2018-12-29T10:41:02.177Z,16.55
2018-12-29T10:42:18.147Z,15.95
2018-12-29T10:43:33.963Z,16.10
2018-12-29T10:44:49.767Z,16.05
2018-12-29T10:46:05.749Z,16.60
2018-12-29T10:47:21.752Z,16.77
2018-12-29T10:48:37.764Z,15.10
2018-12-29T10:49:54.091Z,16.97
2018-12-29T10:51:10.415Z,15.50
2018-12-29T10:52:26.318Z,14.73
2018-12-29T10:53:42.188Z,15.90
2018-12-29T10:54:58.104Z,15.05
2018-12-29T10:56:13.990Z,16.23
2018-12-29T10:57:29.861Z,15.58
2018-12-29T10:58:45.914Z,15.05
2018-12-29T11:00:01.745Z,14.83
2018-12-29T11:01:17.586Z,14.98
2018-12-29T11:02:33.440Z,16.10
2018-12-29T11:03:49.807Z,15.78
2018-12-29T11:05:05.604Z,14.58
2018-12-29T11:06:21.739Z,15.98
2018-12-29T11:07:37.681Z,15.72
2018-12-29T11:08:54.056Z,16.52
2018-12-29T11:10:10.190Z,15.50
2018-12-29T11:11:26.116Z,16.77
2018-12-29T11:12:42.097Z,15.80
2018-12-29T11:13:58.003Z,16.40
2018-12-29T11:15:14.061Z,16.12
2018-12-29T11:16:29.876Z,16.32
2018-12-29T11:17:45.914Z,18.45
2018-12-29T11:19:02.240Z,17.27
2018-12-29T11:20:18.851Z,15.80
2018-12-29T11:21:52.380Z,18.32
2018-12-29T11:23:01.821Z,15.93
2018-12-29T11:24:18.215Z,19.15
2018-12-29T11:25:34.025Z,20.08
2018-12-29T11:26:49.899Z,18.05
2018-12-29T11:28:05.992Z,21.60
2018-12-29T11:29:22.272Z,19.00
2018-12-29T11:30:38.296Z,25.35
2018-12-29T11:31:54.307Z,27.25
2018-12-29T11:33:10.209Z,29.23
2018-12-29T11:34:26.525Z,24.92
2018-12-29T11:35:42.332Z,20.27
2018-12-29T11:36:58.580Z,18.48
2018-12-29T11:38:14.257Z,16.20
2018-12-29T11:39:30.498Z,15.78
2018-12-29T11:40:46.296Z,16.12
2018-12-29T11:42:02.004Z,15.75
2018-12-29T11:43:18.103Z,15.23
2018-12-29T11:44:34.433Z,15.40
2018-12-29T11:45:50.391Z,16.37
2018-12-29T11:47:06.534Z,17.92
2018-12-29T11:48:22.300Z,17.85
2018-12-29T11:49:38.240Z,17.90
2018-12-29T11:50:54.103Z,18.25
2018-12-29T11:52:10.469Z,19.32
2018-12-29T11:53:26.910Z,17.42
2018-12-29T11:54:43.803Z,16.57
2018-12-29T11:55:59.419Z,17.70
2018-12-29T11:57:15.055Z,17.70
2018-12-29T11:58:30.668Z,18.42
2018-12-29T11:59:46.817Z,17.60
2018-12-29T12:01:02.980Z,18.67
2018-12-29T12:02:24.451Z,17.40
2018-12-29T12:03:37.307Z,18.07
2018-12-29T12:04:53.350Z,18.32
2018-12-29T12:06:09.332Z,16.70
2018-12-29T12:07:25.264Z,17.40
2018-12-29T12:08:41.147Z,15.43
2018-12-29T12:09:57.241Z,14.95
2018-12-29T12:11:13.156Z,15.83
2018-12-29T12:12:29.259Z,14.93
2018-12-29T12:13:45.524Z,14.35
2018-12-29T12:15:01.276Z,13.25
2018-12-29T12:16:17.244Z,13.95
2018-12-29T12:17:33.247Z,13.20
2018-12-29T12:18:49.718Z,13.72
2018-12-29T12:20:05.678Z,13.03
2018-12-29T12:21:21.436Z,13.60
2018-12-29T12:22:37.368Z,13.00
2018-12-29T12:23:53.498Z,12.98
2018-12-29T12:25:09.392Z,13.58
2018-12-29T12:26:25.183Z,13.65
2018-12-29T12:27:41.012Z,13.50
2018-12-29T12:28:57.175Z,14.30
2018-12-29T12:30:14.004Z,13.55
2018-12-29T12:31:30.052Z,13.25
2018-12-29T12:32:46.185Z,14.38
2018-12-29T12:34:02.189Z,13.13
2018-12-29T12:35:18.116Z,13.70
2018-12-29T12:36:34.167Z,12.85
2018-12-29T12:37:50.310Z,14.30
2018-12-29T12:39:06.240Z,13.08
2018-12-29T12:40:22.106Z,13.90
2018-12-29T12:41:37.999Z,13.20
2018-12-29T12:42:54.011Z,12.73
2018-12-29T12:44:10.167Z,13.32
2018-12-29T12:45:26.680Z,13.22
2018-12-29T12:46:42.751Z,13.53
2018-12-29T12:48:04.990Z,12.63
2018-12-29T12:49:17.372Z,13.50
2018-12-29T12:50:33.432Z,12.47
2018-12-29T12:51:49.349Z,12.25
2018-12-29T12:53:05.220Z,11.95
2018-12-29T12:54:22.086Z,13.43
2018-12-29T12:55:38.275Z,11.75
2018-12-29T12:56:54.380Z,11.03
2018-12-29T12:58:10.453Z,11.38
2018-12-29T12:59:26.543Z,10.90
2018-12-29T13:00:42.563Z,11.30
2018-12-29T13:01:58.843Z,11.22
2018-12-29T13:03:14.837Z,9.78
2018-12-29T13:04:30.764Z,10.25
2018-12-29T13:05:46.561Z,9.98
2018-12-29T13:07:02.290Z,10.05
2018-12-29T13:08:18.172Z,11.03
2018-12-29T13:09:34.287Z,10.23
2018-12-29T13:10:50.548Z,9.35
2018-12-29T13:12:06.371Z,9.33
2018-12-29T13:13:22.151Z,9.53
2018-12-29T13:14:38.145Z,10.55
2018-12-29T13:15:54.029Z,10.35
2018-12-29T13:17:09.992Z,11.03
2018-12-29T13:18:25.897Z,8.35
2018-12-29T13:19:41.787Z,8.80
2018-12-29T13:20:57.586Z,8.55
2018-12-29T13:22:13.875Z,8.95
2018-12-29T13:23:31.694Z,9.08
2018-12-29T13:24:53.596Z,9.43
2018-12-29T13:26:16.822Z,8.35
2018-12-29T13:27:36.285Z,8.40
2018-12-29T13:28:57.534Z,8.75
2018-12-29T13:30:15.823Z,8.50
2018-12-29T13:31:37.172Z,9.45
2018-12-29T13:32:53.663Z,9.60
2018-12-29T13:34:12.174Z,8.63
2018-12-29T13:35:28.951Z,9.65
2018-12-29T13:36:45.089Z,8.30
2018-12-29T13:38:00.865Z,7.75
2018-12-29T13:39:17.256Z,8.08
2018-12-29T13:40:34.156Z,8.60
2018-12-29T13:41:51.263Z,8.43
2018-12-29T13:43:07.117Z,8.00
2018-12-29T13:44:28.012Z,8.28
2018-12-29T13:45:43.266Z,8.33
2018-12-29T13:47:01.842Z,9.03
2018-12-29T13:48:22.192Z,9.58
2018-12-29T13:49:41.096Z,9.10
2018-12-29T13:50:58.559Z,8.28
2018-12-29T13:52:20.944Z,8.40
2018-12-29T13:53:37.203Z,8.08
2018-12-29T13:54:55.990Z,9.40
2018-12-29T13:56:12.649Z,9.00
2018-12-29T13:57:29.142Z,8.98
2018-12-29T13:58:49.148Z,9.25
2018-12-29T14:00:13.467Z,9.38
2018-12-29T14:01:29.579Z,8.35
2018-12-29T14:02:49.704Z,8.40
2018-12-29T14:04:25.090Z,8.75
2018-12-29T14:05:34.823Z,8.48
2018-12-29T14:06:50.564Z,9.05
2018-12-29T14:08:10.625Z,9.78
2018-12-29T14:09:27.977Z,8.75
2018-12-29T14:10:44.991Z,8.95
2018-12-29T14:12:02.162Z,10.70
2018-12-29T14:13:23.352Z,13.68
2018-12-29T14:14:39.248Z,11.60
2018-12-29T14:15:58.691Z,9.50
2018-12-29T14:17:18.352Z,9.85
2018-12-29T14:18:36.952Z,10.15
2018-12-29T14:19:58.196Z,9.25
2018-12-29T14:21:16.110Z,9.48
2018-12-29T14:22:33.770Z,9.28
2018-12-29T14:23:49.740Z,9.00
2018-12-29T14:25:05.598Z,9.05
2018-12-29T14:26:21.951Z,8.95
2018-12-29T14:27:42.818Z,8.73
2018-12-29T14:29:04.793Z,8.73
2018-12-29T14:30:23.816Z,8.88
2018-12-29T14:31:39.765Z,8.83
2018-12-29T14:33:00.662Z,8.40
2018-12-29T14:34:16.260Z,8.28
2018-12-29T14:35:32.726Z,8.70
2018-12-29T14:36:48.839Z,9.13
2018-12-29T14:38:10.855Z,8.95
2018-12-29T14:39:29.286Z,8.78
2018-12-29T14:40:46.139Z,8.43
2018-12-29T14:42:05.459Z,9.40
2018-12-29T14:43:23.658Z,8.50
2018-12-29T14:44:40.583Z,8.83
2018-12-29T14:45:56.371Z,8.38
2018-12-29T14:47:12.252Z,8.63
2018-12-29T14:48:35.853Z,8.88
2018-12-29T14:49:56.354Z,7.80
2018-12-29T14:51:16.765Z,9.13
2018-12-29T14:52:35.770Z,9.00
2018-12-29T14:53:54.987Z,8.13
2018-12-29T14:55:12.458Z,8.23
2018-12-29T14:56:29.041Z,7.60
2018-12-29T14:57:45.673Z,8.33
2018-12-29T14:59:01.982Z,8.58
2018-12-29T15:00:18.736Z,9.10
2018-12-29T15:01:39.164Z,8.65
2018-12-29T15:02:59.652Z,8.53
2018-12-29T15:04:15.528Z,9.90
2018-12-29T15:05:34.593Z,9.15
2018-12-29T15:06:50.950Z,9.35
2018-12-29T15:08:12.029Z,9.13
2018-12-29T15:09:33.985Z,8.73
2018-12-29T15:10:49.972Z,8.10
2018-12-29T15:12:06.582Z,8.28
2018-12-29T15:13:24.868Z,7.87
2018-12-29T15:14:41.311Z,7.92
2018-12-29T15:15:58.262Z,7.28
2018-12-29T15:17:21.959Z,8.50
2018-12-29T15:18:43.461Z,7.70
2018-12-29T15:21:13.166Z,7.72
2018-12-29T15:22:34.206Z,6.62
2018-12-29T15:23:56.067Z,7.15
2018-12-29T15:25:12.025Z,7.08
2018-12-29T15:26:27.898Z,7.55
2018-12-29T15:27:43.731Z,7.55
2018-12-29T15:28:59.671Z,6.67
2018-12-29T15:30:15.630Z,7.10
2018-12-29T15:31:31.775Z,7.08
2018-12-29T15:32:48.104Z,7.12
2018-12-29T15:34:03.760Z,7.85
2018-12-29T15:35:19.670Z,6.70
2018-12-29T15:36:35.611Z,6.55
2018-12-29T15:37:51.323Z,6.83
2018-12-29T15:39:07.841Z,5.83
2018-12-29T15:40:23.724Z,7.12
2018-12-29T15:41:39.935Z,6.12
2018-12-29T15:42:55.753Z,5.67
2018-12-29T15:44:11.809Z,4.83
2018-12-29T15:45:27.544Z,5.08
2018-12-29T15:46:43.513Z,4.92
2018-12-29T15:47:59.693Z,4.47
2018-12-29T15:49:15.893Z,5.40
2018-12-29T15:50:31.768Z,4.83
2018-12-29T15:51:47.883Z,5.25
2018-12-29T15:53:03.792Z,4.67
2018-12-29T15:54:19.567Z,4.50
2018-12-29T15:55:35.678Z,4.80
2018-12-29T15:56:51.581Z,4.33
2018-12-29T15:58:07.203Z,5.28
2018-12-29T15:59:23.164Z,5.15
2018-12-29T16:00:39.112Z,4.12
2018-12-29T16:01:55.168Z,4.72
2018-12-29T16:03:10.983Z,4.37
2018-12-29T16:04:26.940Z,5.22
2018-12-29T16:05:43.059Z,5.53
2018-12-29T16:06:59.187Z,4.92
2018-12-29T16:08:15.278Z,5.67
2018-12-29T16:09:30.999Z,5.65
2018-12-29T16:10:47.395Z,5.22
2018-12-29T16:12:03.241Z,5.70
2018-12-29T16:13:19.147Z,4.55
2018-12-29T16:14:35.718Z,4.95
2018-12-29T16:15:51.297Z,4.05
2018-12-29T16:17:07.533Z,4.33
2018-12-29T16:18:23.604Z,4.40
2018-12-29T16:19:39.612Z,4.10
2018-12-29T16:20:55.928Z,4.50
2018-12-29T16:22:12.083Z,4.53
2018-12-29T16:23:27.986Z,4.17
2018-12-29T16:24:43.986Z,6.22
2018-12-29T16:25:59.966Z,8.20
2018-12-29T16:27:16.047Z,8.55
2018-12-29T16:28:31.843Z,5.15
2018-12-29T16:29:47.867Z,5.55
2018-12-29T16:31:03.670Z,5.53